Time;durP1;ratioP1;P1;durP2;ratioP2;P2;SDS_P1;SDS_P2;PMS_P1;PMS_P2;Temp;Humidity;BMP_temperature;BMP_pressure;BME280_temperature;BME280_humidity;BME280_pressure;Samples;Min_cycle;Max_cycle;Signal;HPM_P1;HPM_P2
2023/10/14 00:01:13;;;;;;;38.10;18.75;;;;;;;;;;6246674;28;20049;-59
2023/10/14 00:04:13;;;;;;;37.67;15.25;;;;;;;;;;6249232;28;20041;-59
2023/10/14 00:07:17;;;;;;;36.25;14.52;;;;;;;;;;6245364;28;20041;-58
2023/10/14 00:10:38;;;;;;;31.30;12.73;;;;;;;;;;6245378;28;20049;-58
2023/10/14 00:13:42;;;;;;;27.88;13.10;;;;;;;;;;6246134;28;20045;-58
2023/10/14 00:16:49;;;;;;;33.72;13.07;;;;;;;;;;6247127;28;20040;-59
2023/10/14 00:19:50;;;;;;;35.55;13.90;;;;;;;;;;6245582;28;20087;-58
2023/10/14 00:22:50;;;;;;;36.95;15.57;;;;;;;;;;6245760;28;20053;-59
2023/10/14 00:25:51;;;;;;;41.70;17.27;;;;;;;;;;6245451;28;20057;-58
2023/10/14 00:28:54;;;;;;;45.22;17.00;;;;;;;;;;6244173;28;20045;-58
2023/10/14 00:31:55;;;;;;;33.20;13.73;;;;;;;;;;6245397;28;20045;-59
2023/10/14 00:34:56;;;;;;;34.03;13.80;;;;;;;;;;6253623;28;20079;-59
2023/10/14 00:38:02;;;;;;;26.48;11.13;;;;;;;;;;6248878;28;20092;-59
2023/10/14 00:41:03;;;;;;;28.70;11.40;;;;;;;;;;6244762;28;20044;-59
2023/10/14 00:44:04;;;;;;;32.55;12.35;;;;;;;;;;6245416;28;20050;-58
2023/10/14 00:47:07;;;;;;;28.45;11.52;;;;;;;;;;6245221;28;20072;-60
2023/10/14 00:53:28;;;;;;;25.35;11.50;;;;;;;;;;6244566;28;20046;-58
2023/10/14 00:56:31;;;;;;;32.60;13.30;;;;;;;;;;6246220;28;20042;-59
2023/10/14 00:59:31;;;;;;;31.08;12.75;;;;;;;;;;6244892;28;20049;-59
2023/10/14 01:02:33;;;;;;;32.20;13.45;;;;;;;;;;6243651;28;20057;-59
2023/10/14 01:05:36;;;;;;;27.88;13.23;;;;;;;;;;6243367;28;20523;-59
2023/10/14 01:08:42;;;;;;;34.92;14.10;;;;;;;;;;6243057;28;20057;-59
2023/10/14 01:11:43;;;;;;;30.30;12.73;;;;;;;;;;6242306;28;20527;-59
2023/10/14 01:14:45;;;;;;;28.15;11.90;;;;;;;;;;6243489;28;20099;-58
2023/10/14 01:17:45;;;;;;;27.90;10.93;;;;;;;;;;6242504;28;20053;-59
2023/10/14 01:20:46;;;;;;;22.15;10.20;;;;;;;;;;6241050;28;20511;-59
2023/10/14 01:23:50;;;;;;;21.27;9.55;;;;;;;;;;6244344;28;20046;-59
2023/10/14 01:27:00;;;;;;;22.65;8.90;;;;;;;;;;6244419;28;20191;-59
2023/10/14 01:30:08;;;;;;;20.70;8.02;;;;;;;;;;6242775;28;20057;-59
2023/10/14 01:33:25;;;;;;;23.20;8.57;;;;;;;;;;6248496;28;20051;-59
2023/10/14 01:36:32;;;;;;;19.50;8.02;;;;;;;;;;6257824;28;20049;-59
2023/10/14 01:39:33;;;;;;;19.25;7.90;;;;;;;;;;6246254;28;20052;-59
2023/10/14 01:42:33;;;;;;;17.63;7.20;;;;;;;;;;6242891;28;20139;-59
2023/10/14 01:49:16;;;;;;;20.83;7.93;;;;;;;;;;6213620;28;20489;-59
2023/10/14 01:52:19;;;;;;;22.90;7.88;;;;;;;;;;6243895;28;20477;-60
2023/10/14 01:55:20;;;;;;;23.20;7.30;;;;;;;;;;6242777;28;20128;-60
2023/10/14 01:58:23;;;;;;;19.33;7.50;;;;;;;;;;6242723;28;20429;-60
2023/10/14 02:01:23;;;;;;;19.08;6.82;;;;;;;;;;6243117;28;20631;-60
2023/10/14 02:04:26;;;;;;;23.20;7.17;;;;;;;;;;6243091;28;20057;-59
2023/10/14 02:07:27;;;;;;;21.35;7.18;;;;;;;;;;6241167;28;20069;-60
2023/10/14 02:10:27;;;;;;;20.42;7.55;;;;;;;;;;6244006;28;20056;-60
2023/10/14 02:13:28;;;;;;;24.67;7.45;;;;;;;;;;6241289;28;20048;-59
2023/10/14 02:16:40;;;;;;;16.70;6.82;;;;;;;;;;6241270;28;20183;-59
2023/10/14 02:19:41;;;;;;;24.90;7.45;;;;;;;;;;6242143;28;20084;-59
2023/10/14 02:22:42;;;;;;;19.83;7.35;;;;;;;;;;6241362;28;20046;-59
2023/10/14 02:25:43;;;;;;;21.27;7.28;;;;;;;;;;6241200;28;20484;-59
2023/10/14 02:28:45;;;;;;;21.83;8.00;;;;;;;;;;6242522;28;20042;-59
2023/10/14 02:31:46;;;;;;;17.20;7.47;;;;;;;;;;6242820;28;20049;-60
2023/10/14 02:34:46;;;;;;;18.13;7.47;;;;;;;;;;6249690;28;20581;-59
2023/10/14 02:37:50;;;;;;;22.77;7.88;;;;;;;;;;6242952;28;20061;-60
2023/10/14 02:40:51;;;;;;;19.33;8.73;;;;;;;;;;6242289;28;20471;-61
2023/10/14 02:44:00;;;;;;;21.13;7.53;;;;;;;;;;6247151;28;20045;-60
2023/10/14 02:47:05;;;;;;;19.27;6.97;;;;;;;;;;6239557;28;20485;-59
2023/10/14 02:50:11;;;;;;;20.52;7.25;;;;;;;;;;6241908;28;20068;-59
2023/10/14 02:53:21;;;;;;;21.23;7.57;;;;;;;;;;6241456;28;20075;-60
2023/10/14 02:56:33;;;;;;;24.17;8.10;;;;;;;;;;6244232;28;20529;-59
2023/10/14 03:02:49;;;;;;;22.80;7.53;;;;;;;;;;6242450;28;20057;-59
2023/10/14 03:05:52;;;;;;;18.73;8.25;;;;;;;;;;6241015;28;20095;-59
2023/10/14 03:08:59;;;;;;;21.55;7.80;;;;;;;;;;6241666;28;20052;-60
2023/10/14 03:12:01;;;;;;;22.27;8.63;;;;;;;;;;6241493;28;20091;-59
2023/10/14 03:15:02;;;;;;;19.38;8.00;;;;;;;;;;6242939;28;20065;-60
2023/10/14 03:18:03;;;;;;;28.25;9.07;;;;;;;;;;6242030;28;20663;-59
2023/10/14 03:21:09;;;;;;;22.42;8.73;;;;;;;;;;6240021;28;20056;-60
2023/10/14 03:24:10;;;;;;;21.75;8.77;;;;;;;;;;6241986;28;20041;-59
2023/10/14 03:27:10;;;;;;;33.08;9.35;;;;;;;;;;6241259;28;20120;-60
2023/10/14 03:30:11;;;;;;;23.48;9.52;;;;;;;;;;6240626;28;20050;-59
2023/10/14 03:33:20;;;;;;;30.30;9.52;;;;;;;;;;6250547;28;20049;-61
2023/10/14 03:36:28;;;;;;;25.35;9.80;;;;;;;;;;6253988;28;20477;-60
2023/10/14 03:39:38;;;;;;;31.60;10.70;;;;;;;;;;6246379;28;20554;-59
2023/10/14 03:42:51;;;;;;;28.88;10.77;;;;;;;;;;6243990;28;20060;-59
2023/10/14 03:46:03;;;;;;;26.48;10.13;;;;;;;;;;6245896;28;20057;-62
2023/10/14 03:49:20;;;;;;;28.77;10.98;;;;;;;;;;6246836;28;20041;-58
2023/10/14 03:52:22;;;;;;;31.02;11.77;;;;;;;;;;6244663;28;20464;-60
2023/10/14 03:55:26;;;;;;;30.73;11.40;;;;;;;;;;6245771;28;20102;-59
2023/10/14 03:58:33;;;;;;;38.35;11.73;;;;;;;;;;6248670;28;20052;-58
2023/10/14 04:04:42;;;;;;;29.17;11.60;;;;;;;;;;6245088;28;20131;-59
2023/10/14 04:07:43;;;;;;;28.50;12.70;;;;;;;;;;6245910;28;20050;-59
2023/10/14 04:10:46;;;;;;;32.25;12.18;;;;;;;;;;6244064;28;20060;-59
2023/10/14 04:14:08;;;;;;;34.35;12.63;;;;;;;;;;6248698;28;20519;-59
2023/10/14 04:20:31;;;;;;;35.25;13.52;;;;;;;;;;6238569;28;20053;-60
2023/10/14 04:23:38;;;;;;;31.63;13.20;;;;;;;;;;6244655;28;20104;-60
2023/10/14 04:26:41;;;;;;;33.47;12.82;;;;;;;;;;6246989;28;20748;-59
2023/10/14 04:29:51;;;;;;;29.40;13.13;;;;;;;;;;6245044;28;20088;-60
2023/10/14 04:36:08;;;;;;;31.63;13.45;;;;;;;;;;6245276;28;20050;-59
2023/10/14 04:39:15;;;;;;;38.45;13.80;;;;;;;;;;6244323;28;20077;-59
2023/10/14 04:45:19;;;;;;;33.55;13.27;;;;;;;;;;6250805;28;20045;-60
2023/10/14 04:48:35;;;;;;;34.75;14.38;;;;;;;;;;6244588;28;20404;-60
2023/10/14 04:51:45;;;;;;;34.80;13.55;;;;;;;;;;6244238;28;20045;-59
2023/10/14 04:54:53;;;;;;;33.92;13.35;;;;;;;;;;6244405;28;20045;-60
2023/10/14 05:01:17;;;;;;;38.72;15.85;;;;;;;;;;6258438;28;20060;-59
2023/10/14 05:04:20;;;;;;;36.05;13.77;;;;;;;;;;6252212;28;20041;-59
2023/10/14 05:07:20;;;;;;;;;;;;;;;;;;6244874;28;20057;-58
2023/10/14 05:10:24;;;;;;;31.83;14.23;;;;;;;;;;6247272;28;19932;-59
2023/10/14 05:13:31;;;;;;;35.65;14.43;;;;;;;;;;6243576;28;20052;-65
2023/10/14 05:16:57;;;;;;;35.20;14.18;;;;;;;;;;6243614;28;20037;-61
2023/10/14 05:19:58;;;;;;;34.30;14.30;;;;;;;;;;6243371;28;20521;-56
2023/10/14 05:22:59;;;;;;;38.53;15.23;;;;;;;;;;6243483;28;20045;-64
2023/10/14 05:26:06;;;;;;;39.60;15.07;;;;;;;;;;6243757;28;20125;-61
2023/10/14 05:29:19;;;;;;;39.35;15.00;;;;;;;;;;6242799;28;20487;-64
2023/10/14 05:32:24;;;;;;;42.50;16.38;;;;;;;;;;6245037;28;20084;-64
2023/10/14 05:35:25;;;;;;;40.70;15.68;;;;;;;;;;6252441;28;20041;-64
2023/10/14 05:38:25;;;;;;;38.15;15.23;;;;;;;;;;6240933;28;20065;-58
2023/10/14 05:41:26;;;;;;;40.05;16.10;;;;;;;;;;6242569;28;20508;-59
2023/10/14 05:44:27;;;;;;;42.45;16.05;;;;;;;;;;6242555;28;20053;-59
2023/10/14 05:47:28;;;;;;;41.08;15.13;;;;;;;;;;6244907;28;20195;-58
2023/10/14 05:50:33;;;;;;;43.70;15.93;;;;;;;;;;6243880;28;20042;-58
2023/10/14 05:53:33;;;;;;;33.40;15.10;;;;;;;;;;6243803;28;20056;-58
2023/10/14 05:56:34;;;;;;;43.35;16.15;;;;;;;;;;6241301;28;20533;-58
2023/10/14 05:59:38;;;;;;;37.88;16.00;;;;;;;;;;6240482;28;20138;-58
2023/10/14 06:02:38;;;;;;;41.65;16.40;;;;;;;;;;6238269;28;20057;-57
2023/10/14 06:05:39;;;;;;;38.28;16.00;;;;;;;;;;6242211;28;20128;-59
2023/10/14 06:08:41;;;;;;;51.35;18.60;;;;;;;;;;6242575;28;20049;-58
2023/10/14 06:11:42;;;;;;;;;;;;;;;;;;6263862;28;20131;-58
2023/10/14 06:14:43;;;;;;;42.03;17.30;;;;;;;;;;6249271;28;20004;-59
2023/10/14 06:17:45;;;;;;;;;;;;;;;;;;6242717;28;20060;-60
2023/10/14 06:20:45;;;;;;;41.28;17.15;;;;;;;;;;6240012;28;19921;-58
2023/10/14 06:23:49;;;;;;;41.55;16.85;;;;;;;;;;6240259;28;20060;-59
2023/10/14 06:26:54;;;;;;;39.78;16.52;;;;;;;;;;6239320;28;20456;-59
2023/10/14 06:29:55;;;;;;;39.83;17.42;;;;;;;;;;6240022;28;20469;-59
2023/10/14 06:33:03;;;;;;;38.28;17.08;;;;;;;;;;6240441;28;20048;-58
2023/10/14 06:36:07;;;;;;;40.25;16.30;;;;;;;;;;6242229;28;20041;-57
2023/10/14 06:39:14;;;;;;;42.05;17.23;;;;;;;;;;6241073;28;20463;-59
2023/10/14 06:42:17;;;;;;;40.78;16.30;;;;;;;;;;6242383;28;20046;-59
2023/10/14 06:45:20;;;;;;;42.38;18.23;;;;;;;;;;6241579;28;20387;-57
2023/10/14 06:48:21;;;;;;;44.53;16.88;;;;;;;;;;6241870;28;20045;-62
2023/10/14 06:51:22;;;;;;;39.75;16.38;;;;;;;;;;6241800;28;20072;-58
2023/10/14 06:54:26;;;;;;;58.63;18.33;;;;;;;;;;6242098;28;20546;-59
2023/10/14 06:57:26;;;;;;;42.83;16.58;;;;;;;;;;6246892;28;20792;-58
2023/10/14 07:00:29;;;;;;;41.30;16.80;;;;;;;;;;6240899;28;20057;-59
2023/10/14 07:03:30;;;;;;;35.35;16.40;;;;;;;;;;6247815;28;20521;-58
2023/10/14 07:06:31;;;;;;;42.85;17.08;;;;;;;;;;6242650;28;20139;-57
2023/10/14 07:09:31;;;;;;;45.58;17.67;;;;;;;;;;6244930;28;20053;-60
2023/10/14 07:12:37;;;;;;;41.95;17.20;;;;;;;;;;6266682;28;20057;-59
2023/10/14 07:15:39;;;;;;;43.78;16.58;;;;;;;;;;6268714;28;20436;-59
2023/10/14 07:18:40;;;;;;;41.85;17.63;;;;;;;;;;6248240;28;20045;-59
2023/10/14 07:21:40;;;;;;;41.30;16.90;;;;;;;;;;6260491;28;20048;-59
2023/10/14 07:24:41;;;;;;;41.53;16.67;;;;;;;;;;6268847;28;20049;-52
2023/10/14 07:27:41;;;;;;;39.57;16.00;;;;;;;;;;6256023;28;20056;-56
2023/10/14 07:30:49;;;;;;;35.67;16.65;;;;;;;;;;6258038;28;20041;-58
2023/10/14 07:33:50;;;;;;;40.60;16.20;;;;;;;;;;6269555;28;20049;-61
2023/10/14 07:36:51;;;;;;;43.17;16.63;;;;;;;;;;6270300;28;20095;-64
2023/10/14 07:39:53;;;;;;;48.03;18.03;;;;;;;;;;6268768;28;20045;-62
2023/10/14 07:43:05;;;;;;;33.65;16.25;;;;;;;;;;6270445;28;20047;-61
2023/10/14 07:46:06;;;;;;;40.03;16.48;;;;;;;;;;6269765;28;20495;-60
2023/10/14 07:49:07;;;;;;;42.67;15.93;;;;;;;;;;6261082;28;20055;-57
2023/10/14 07:52:14;;;;;;;36.83;16.60;;;;;;;;;;6263017;28;20049;-56
2023/10/14 07:55:15;;;;;;;40.58;16.55;;;;;;;;;;6254527;28;20049;-55
2023/10/14 07:58:18;;;;;;;42.80;16.87;;;;;;;;;;6257273;28;20538;-55
2023/10/14 08:01:22;;;;;;;35.60;15.95;;;;;;;;;;6252115;28;20041;-57
2023/10/14 08:04:24;;;;;;;38.03;17.25;;;;;;;;;;6256648;28;20052;-58
2023/10/14 08:07:27;;;;;;;34.17;15.95;;;;;;;;;;6252081;28;20048;-58
2023/10/14 08:10:27;;;;;;;43.10;17.75;;;;;;;;;;6254648;28;20539;-58
2023/10/14 08:13:31;;;;;;;38.47;17.33;;;;;;;;;;6256959;28;20045;-59
2023/10/14 08:16:31;;;;;;;37.97;17.42;;;;;;;;;;6268757;28;20392;-60
2023/10/14 08:19:32;;;;;;;43.03;16.13;;;;;;;;;;6251829;28;20041;-58
2023/10/14 08:22:33;;;;;;;47.23;17.53;;;;;;;;;;6256117;28;20037;-58
2023/10/14 08:25:34;;;;;;;36.03;16.52;;;;;;;;;;6256779;28;20083;-58
2023/10/14 08:28:34;;;;;;;34.67;16.10;;;;;;;;;;6246523;28;20452;-58
2023/10/14 08:31:37;;;;;;;34.77;16.43;;;;;;;;;;6251974;28;20140;-58
2023/10/14 08:34:37;;;;;;;41.42;16.42;;;;;;;;;;6255269;28;20048;-59
2023/10/14 08:37:38;;;;;;;37.17;16.77;;;;;;;;;;6255804;28;20598;-57
2023/10/14 08:40:40;;;;;;;38.87;15.43;;;;;;;;;;6249660;28;20484;-58
2023/10/14 08:43:50;;;;;;;40.40;17.08;;;;;;;;;;6256983;28;20548;-58
2023/10/14 08:46:51;;;;;;;35.03;15.85;;;;;;;;;;6251278;28;20374;-58
2023/10/14 08:49:54;;;;;;;42.42;17.10;;;;;;;;;;6254203;28;20049;-64
2023/10/14 08:52:56;;;;;;;;;;;;;;;;;;6252821;28;20064;-54
2023/10/14 08:55:58;;;;;;;37.22;15.95;;;;;;;;;;6253330;28;20370;-62
2023/10/14 08:58:58;;;;;;;36.47;14.85;;;;;;;;;;6259758;28;20048;-59
2023/10/14 09:02:00;;;;;;;39.97;16.67;;;;;;;;;;6247057;28;20586;-57
2023/10/14 09:05:03;;;;;;;40.50;15.88;;;;;;;;;;6255778;28;20496;-56
2023/10/14 09:08:04;;;;;;;39.42;16.65;;;;;;;;;;6249376;28;20096;-57
2023/10/14 09:11:05;;;;;;;37.08;16.33;;;;;;;;;;6251025;28;20112;-58
2023/10/14 09:14:06;;;;;;;34.60;16.27;;;;;;;;;;6251886;28;20076;-59
2023/10/14 09:17:10;;;;;;;39.88;16.55;;;;;;;;;;6258616;28;20041;-58
2023/10/14 09:20:34;;;;;;;35.63;15.43;;;;;;;;;;6249696;28;20041;-59
2023/10/14 09:23:39;;;;;;;39.55;17.58;;;;;;;;;;6242704;28;20064;-64
2023/10/14 09:26:44;;;;;;;36.90;17.63;;;;;;;;;;6256239;28;21491;-63
2023/10/14 09:29:44;;;;;;;35.28;15.60;;;;;;;;;;6243787;28;20050;-64
2023/10/14 09:32:46;;;;;;;36.03;16.40;;;;;;;;;;6250555;28;20489;-64
2023/10/14 09:35:48;;;;;;;34.60;15.13;;;;;;;;;;6258564;28;20125;-64
2023/10/14 09:38:51;;;;;;;33.72;15.25;;;;;;;;;;6243637;28;20049;-64
2023/10/14 09:41:53;;;;;;;34.83;15.35;;;;;;;;;;6246861;28;20095;-63
2023/10/14 09:44:55;;;;;;;38.90;15.93;;;;;;;;;;6249808;28;20053;-63
2023/10/14 09:47:57;;;;;;;37.05;15.63;;;;;;;;;;6254109;28;20053;-63
2023/10/14 09:51:02;;;;;;;35.88;16.17;;;;;;;;;;6254311;28;20064;-63
2023/10/14 09:54:04;;;;;;;37.08;15.65;;;;;;;;;;6252827;28;20094;-63
2023/10/14 09:57:05;;;;;;;38.60;15.75;;;;;;;;;;6255126;28;21010;-63
2023/10/14 10:00:07;;;;;;;32.88;14.52;;;;;;;;;;6256986;28;20446;-64
2023/10/14 10:03:11;;;;;;;35.60;15.68;;;;;;;;;;6253860;28;20063;-63
2023/10/14 10:06:28;;;;;;;33.67;14.40;;;;;;;;;;6256160;28;20051;-61
2023/10/14 10:09:52;;;;;;;34.22;15.18;;;;;;;;;;6257651;28;20045;-63
2023/10/14 10:12:55;;;;;;;35.40;14.90;;;;;;;;;;6254350;28;20055;-64
2023/10/14 10:16:03;;;;;;;36.45;14.07;;;;;;;;;;6255423;28;20488;-64
2023/10/14 10:19:05;;;;;;;31.40;14.07;;;;;;;;;;6255349;28;20059;-65
2023/10/14 10:22:17;;;;;;;37.90;15.20;;;;;;;;;;6255804;28;20045;-66
2023/10/14 10:25:22;;;;;;;36.10;13.43;;;;;;;;;;6256312;28;20049;-64
2023/10/14 10:28:26;;;;;;;31.33;14.13;;;;;;;;;;6255873;28;20492;-64
2023/10/14 10:31:26;;;;;;;32.25;13.88;;;;;;;;;;6257033;28;20136;-68
2023/10/14 10:34:27;;;;;;;29.77;14.43;;;;;;;;;;6254264;28;20504;-62
2023/10/14 10:37:28;;;;;;;41.20;13.93;;;;;;;;;;6254812;28;20049;-60
2023/10/14 10:43:36;;;;;;;32.40;13.48;;;;;;;;;;6243630;28;20481;-63
2023/10/14 10:46:38;;;;;;;35.08;13.68;;;;;;;;;;6253257;28;20052;-61
2023/10/14 10:49:54;;;;;;;30.93;13.63;;;;;;;;;;6254606;28;20057;-62
2023/10/14 10:53:10;;;;;;;31.85;13.65;;;;;;;;;;6242917;28;20050;-61
2023/10/14 10:56:13;;;;;;;28.85;13.45;;;;;;;;;;6248376;28;20513;-62
2023/10/14 10:59:14;;;;;;;33.13;13.65;;;;;;;;;;6251775;28;20048;-61
2023/10/14 11:02:18;;;;;;;34.63;14.85;;;;;;;;;;6247605;28;21038;-63
2023/10/14 11:05:24;;;;;;;35.28;14.50;;;;;;;;;;6252667;28;20208;-64
2023/10/14 11:08:25;;;;;;;38.05;15.85;;;;;;;;;;6251233;28;20518;-63
2023/10/14 11:11:33;;;;;;;40.10;15.98;;;;;;;;;;6251046;28;20163;-64
2023/10/14 11:14:34;;;;;;;37.45;15.93;;;;;;;;;;6249376;28;20056;-62
2023/10/14 11:17:37;;;;;;;35.20;16.23;;;;;;;;;;6253281;28;20490;-63
2023/10/14 11:20:41;;;;;;;36.40;15.05;;;;;;;;;;6253216;28;20063;-63
2023/10/14 11:23:43;;;;;;;37.65;15.93;;;;;;;;;;6247840;28;20059;-64
2023/10/14 11:26:45;;;;;;;40.95;15.63;;;;;;;;;;6254586;28;20122;-63
2023/10/14 11:29:46;;;;;;;;;;;;;;;;;;6254516;28;20734;-64
2023/10/14 11:32:49;;;;;;;37.70;15.73;;;;;;;;;;6250826;28;19925;-64
2023/10/14 11:35:50;;;;;;;39.35;15.77;;;;;;;;;;6251080;28;20059;-65
2023/10/14 11:38:50;;;;;;;42.53;17.20;;;;;;;;;;6253661;28;20458;-64
2023/10/14 11:41:51;;;;;;;45.97;16.77;;;;;;;;;;6252710;28;20080;-63
2023/10/14 11:44:53;;;;;;;42.13;16.63;;;;;;;;;;6248805;28;20053;-62
2023/10/14 11:47:53;;;;;;;42.25;16.40;;;;;;;;;;6255237;28;20049;-61
2023/10/14 11:50:58;;;;;;;41.10;17.10;;;;;;;;;;6253496;28;20103;-63
2023/10/14 11:53:59;;;;;;;38.58;16.35;;;;;;;;;;6254464;28;20048;-61
2023/10/14 11:57:00;;;;;;;34.47;15.90;;;;;;;;;;6258040;28;20051;-61
2023/10/14 12:00:00;;;;;;;40.00;16.00;;;;;;;;;;6257356;28;20091;-61
2023/10/14 12:03:01;;;;;;;45.23;17.27;;;;;;;;;;6256212;28;20053;-63
2023/10/14 12:06:03;;;;;;;40.37;16.23;;;;;;;;;;6258339;28;20056;-62
2023/10/14 12:09:05;;;;;;;;;;;;;;;;;;6256615;28;21044;-63
2023/10/14 12:12:06;;;;;;;37.33;13.43;;;;;;;;;;6256153;28;19920;-63
2023/10/14 12:15:06;;;;;;;34.60;13.87;;;;;;;;;;6256173;28;20107;-63
2023/10/14 12:18:07;;;;;;;35.90;14.30;;;;;;;;;;6258841;28;20161;-63
2023/10/14 12:21:08;;;;;;;32.43;13.33;;;;;;;;;;6257449;28;20056;-63
2023/10/14 12:24:09;;;;;;;36.70;14.67;;;;;;;;;;6247756;28;20191;-63
2023/10/14 12:27:14;;;;;;;36.72;13.68;;;;;;;;;;6258850;28;20461;-64
2023/10/14 12:33:38;;;;;;;33.53;13.85;;;;;;;;;;6259826;28;20671;-63
2023/10/14 12:36:42;;;;;;;37.70;14.13;;;;;;;;;;6259633;28;20502;-63
2023/10/14 12:39:55;;;;;;;30.38;14.27;;;;;;;;;;6260631;28;20049;-62
2023/10/14 12:43:01;;;;;;;31.83;14.00;;;;;;;;;;6256756;28;20141;-61
2023/10/14 12:46:09;;;;;;;34.17;14.18;;;;;;;;;;6255454;28;20053;-63
2023/10/14 12:49:10;;;;;;;41.25;14.73;;;;;;;;;;6258067;28;20060;-63
2023/10/14 12:52:15;;;;;;;33.77;15.93;;;;;;;;;;6255649;28;20052;-63
2023/10/14 12:55:22;;;;;;;38.22;15.40;;;;;;;;;;6257792;28;20036;-63
2023/10/14 12:58:23;;;;;;;33.75;15.00;;;;;;;;;;6243558;28;20058;-64
2023/10/14 13:01:23;;;;;;;36.20;16.13;;;;;;;;;;6240542;28;20090;-63
2023/10/14 13:04:27;;;;;;;40.17;15.03;;;;;;;;;;6240183;28;20441;-63
2023/10/14 13:07:27;;;;;;;39.63;16.15;;;;;;;;;;6242833;28;20050;-64
2023/10/14 13:10:28;;;;;;;39.07;15.37;;;;;;;;;;6242432;28;20091;-64
2023/10/14 13:13:29;;;;;;;40.78;15.85;;;;;;;;;;6244229;28;20037;-63
2023/10/14 13:16:31;;;;;;;37.93;15.60;;;;;;;;;;6242563;28;20060;-64
2023/10/14 13:19:35;;;;;;;36.03;15.68;;;;;;;;;;6240807;28;20041;-64
2023/10/14 13:22:39;;;;;;;38.88;15.52;;;;;;;;;;6241878;28;20060;-63
2023/10/14 13:25:40;;;;;;;41.67;15.18;;;;;;;;;;6243626;28;20041;-63
2023/10/14 13:28:50;;;;;;;40.40;16.03;;;;;;;;;;6243409;28;20041;-63
2023/10/14 13:31:50;;;;;;;33.78;15.63;;;;;;;;;;6244145;28;20064;-63
2023/10/14 13:34:53;;;;;;;44.27;15.83;;;;;;;;;;6244491;28;20048;-63
2023/10/14 13:37:55;;;;;;;36.92;15.70;;;;;;;;;;6243101;28;20045;-63
2023/10/14 13:40:56;;;;;;;37.08;15.82;;;;;;;;;;6241478;28;20077;-64
2023/10/14 13:43:57;;;;;;;34.78;15.70;;;;;;;;;;6243285;28;20052;-63
2023/10/14 13:46:58;;;;;;;34.67;15.97;;;;;;;;;;6244351;28;20045;-63
2023/10/14 13:49:58;;;;;;;40.67;16.10;;;;;;;;;;6240847;28;20099;-62
2023/10/14 13:52:59;;;;;;;41.27;17.00;;;;;;;;;;6241984;28;20048;-63
2023/10/14 13:56:01;;;;;;;40.53;16.77;;;;;;;;;;6243743;28;20073;-63
2023/10/14 13:59:04;;;;;;;44.58;17.10;;;;;;;;;;6243078;28;20049;-63
2023/10/14 14:02:06;;;;;;;40.63;16.75;;;;;;;;;;6242463;28;20128;-63
2023/10/14 14:05:06;;;;;;;37.97;16.20;;;;;;;;;;6241754;28;20045;-63
2023/10/14 14:08:08;;;;;;;42.93;16.37;;;;;;;;;;6243749;28;20041;-64
2023/10/14 14:11:08;;;;;;;40.53;15.60;;;;;;;;;;6243290;28;20508;-64
2023/10/14 14:14:09;;;;;;;39.60;15.47;;;;;;;;;;6240363;28;20042;-64
2023/10/14 14:17:12;;;;;;;40.07;15.47;;;;;;;;;;6244117;28;20041;-64
2023/10/14 14:20:16;;;;;;;34.75;14.43;;;;;;;;;;6242643;28;20050;-64
2023/10/14 14:23:17;;;;;;;37.88;15.32;;;;;;;;;;6241303;28;20049;-62
2023/10/14 14:26:21;;;;;;;34.50;14.13;;;;;;;;;;6242832;28;20047;-65
2023/10/14 14:29:21;;;;;;;34.85;14.25;;;;;;;;;;6242056;28;20047;-64
2023/10/14 14:32:22;;;;;;;32.37;13.47;;;;;;;;;;6242808;28;20124;-64
2023/10/14 14:35:31;;;;;;;35.93;13.33;;;;;;;;;;6242644;28;20049;-64
2023/10/14 14:38:34;;;;;;;31.27;13.25;;;;;;;;;;6241372;28;20049;-64
2023/10/14 14:41:36;;;;;;;29.73;12.57;;;;;;;;;;6241733;28;20181;-64
2023/10/14 14:44:38;;;;;;;32.40;12.75;;;;;;;;;;6243356;28;20037;-64
2023/10/14 14:47:39;;;;;;;;;;;;;;;;;;6244003;28;20045;-63
2023/10/14 14:50:44;;;;;;;27.67;12.88;;;;;;;;;;6239792;28;19938;-63
2023/10/14 14:53:45;;;;;;;37.50;14.02;;;;;;;;;;6240636;28;20056;-63
2023/10/14 14:56:45;;;;;;;29.70;13.50;;;;;;;;;;6242243;28;20065;-63
2023/10/14 14:59:46;;;;;;;36.80;14.17;;;;;;;;;;6241455;28;20054;-64
2023/10/14 15:02:47;;;;;;;31.63;13.20;;;;;;;;;;6239324;28;20535;-65
2023/10/14 15:05:50;;;;;;;32.50;13.17;;;;;;;;;;6242887;28;20309;-62
2023/10/14 15:08:54;;;;;;;30.35;13.20;;;;;;;;;;6242418;28;20041;-65
2023/10/14 15:11:55;;;;;;;38.63;13.65;;;;;;;;;;6241399;28;20450;-64
2023/10/14 15:14:57;;;;;;;32.22;13.00;;;;;;;;;;6241707;28;20579;-64
2023/10/14 15:17:57;;;;;;;31.95;12.32;;;;;;;;;;6239786;28;20097;-64
2023/10/14 15:20:58;;;;;;;37.00;13.00;;;;;;;;;;6222635;28;20100;-63
2023/10/14 15:24:00;;;;;;;31.30;13.63;;;;;;;;;;6239506;28;21278;-64
2023/10/14 15:27:00;;;;;;;;;;;;;;;;;;6251113;28;20475;-64
2023/10/14 15:30:01;;;;;;;37.60;13.80;;;;;;;;;;6258445;28;19932;-64
2023/10/14 15:33:05;;;;;;;33.93;14.13;;;;;;;;;;6256466;28;20151;-62
2023/10/14 15:36:11;;;;;;;34.60;14.05;;;;;;;;;;6254100;28;20095;-62
2023/10/14 15:39:15;;;;;;;32.67;14.65;;;;;;;;;;6257564;28;20056;-64
2023/10/14 15:42:16;;;;;;;36.33;14.70;;;;;;;;;;6256488;28;20049;-64
2023/10/14 15:45:23;;;;;;;37.67;15.93;;;;;;;;;;6255656;28;20505;-63
2023/10/14 15:48:24;;;;;;;37.03;14.43;;;;;;;;;;6256405;28;20541;-64
2023/10/14 15:51:25;;;;;;;38.10;14.50;;;;;;;;;;6255967;28;20059;-65
2023/10/14 15:54:28;;;;;;;38.67;15.23;;;;;;;;;;6253233;28;20048;-62
2023/10/14 15:57:29;;;;;;;45.13;16.98;;;;;;;;;;6255530;28;20286;-63
2023/10/14 16:00:31;;;;;;;35.83;14.37;;;;;;;;;;6251774;28;20061;-65
2023/10/14 16:03:31;;;;;;;;;;;;;;;;;;6254241;28;20060;-64
2023/10/14 16:06:32;;;;;;;28.08;12.13;;;;;;;;;;6254923;28;19971;-67
2023/10/14 16:09:33;;;;;;;25.87;11.63;;;;;;;;;;6258477;28;20051;-68
2023/10/14 16:12:36;;;;;;;36.58;11.27;;;;;;;;;;6256456;28;20053;-64
2023/10/14 16:15:37;;;;;;;27.67;14.05;;;;;;;;;;6254565;28;20048;-64
2023/10/14 16:18:37;;;;;;;26.65;10.80;;;;;;;;;;6256124;28;20115;-65
2023/10/14 16:21:38;;;;;;;24.63;9.52;;;;;;;;;;6255315;28;20422;-63
2023/10/14 16:24:38;;;;;;;17.77;8.23;;;;;;;;;;6253660;28;20103;-63
2023/10/14 16:27:39;;;;;;;20.47;8.93;;;;;;;;;;6256925;28;20492;-63
2023/10/14 16:30:40;;;;;;;19.08;8.10;;;;;;;;;;6256499;28;20053;-65
2023/10/14 16:33:41;;;;;;;16.13;6.57;;;;;;;;;;6254789;28;20415;-66
2023/10/14 16:36:41;;;;;;;10.87;4.67;;;;;;;;;;6255441;28;20041;-66
2023/10/14 16:39:43;;;;;;;11.30;4.90;;;;;;;;;;6256668;28;20446;-64
2023/10/14 16:42:46;;;;;;;13.18;5.28;;;;;;;;;;6255464;28;20500;-64
2023/10/14 16:45:47;;;;;;;9.68;5.45;;;;;;;;;;6252763;28;20110;-63
2023/10/14 16:48:48;;;;;;;11.50;5.15;;;;;;;;;;6254848;28;20491;-62
2023/10/14 16:51:49;;;;;;;10.30;5.57;;;;;;;;;;6256279;28;20047;-63
2023/10/14 16:54:50;;;;;;;12.02;6.03;;;;;;;;;;6253991;28;20049;-63
2023/10/14 16:57:51;;;;;;;8.57;4.03;;;;;;;;;;6256159;28;20040;-61
2023/10/14 17:00:54;;;;;;;7.43;3.15;;;;;;;;;;6255609;28;20041;-63
2023/10/14 17:03:55;;;;;;;5.53;2.72;;;;;;;;;;6254641;28;20518;-63
2023/10/14 17:06:56;;;;;;;6.15;2.83;;;;;;;;;;6255647;28;20053;-64
2023/10/14 17:09:57;;;;;;;27.83;11.57;;;;;;;;;;6256381;28;20053;-62
2023/10/14 17:13:00;;;;;;;61.43;25.43;;;;;;;;;;6255334;28;20130;-64
2023/10/14 17:16:03;;;;;;;236.63;100.03;;;;;;;;;;6253098;28;20514;-62
2023/10/14 17:19:03;;;;;;;25.38;11.25;;;;;;;;;;6255068;28;20483;-62
2023/10/14 17:22:05;;;;;;;340.73;129.40;;;;;;;;;;6255437;28;20120;-64
2023/10/14 17:25:11;;;;;;;73.07;25.95;;;;;;;;;;6252377;28;20080;-63
2023/10/14 17:28:12;;;;;;;316.92;120.32;;;;;;;;;;6255306;28;20041;-64
2023/10/14 17:31:14;;;;;;;340.63;113.10;;;;;;;;;;6256107;28;20053;-65
2023/10/14 17:34:15;;;;;;;179.18;56.03;;;;;;;;;;6251301;28;21090;-66
2023/10/14 17:37:16;;;;;;;117.10;37.10;;;;;;;;;;6251392;28;20595;-64
2023/10/14 17:40:18;;;;;;;96.53;34.92;;;;;;;;;;6250279;28;20059;-65
2023/10/14 17:43:20;;;;;;;;;;;;;;;;;;6252638;28;20060;-63
2023/10/14 17:46:23;;;;;;;27.83;11.13;;;;;;;;;;6252413;28;19929;-65
2023/10/14 17:49:24;;;;;;;130.48;42.50;;;;;;;;;;6252397;28;20045;-64
2023/10/14 17:52:25;;;;;;;64.43;22.23;;;;;;;;;;6254483;28;20119;-64
2023/10/14 17:55:27;;;;;;;262.60;85.93;;;;;;;;;;6252039;28;20605;-65
2023/10/14 17:58:29;;;;;;;198.00;65.40;;;;;;;;;;6255284;28;20055;-73
2023/10/14 18:01:29;;;;;;;141.50;52.27;;;;;;;;;;6254343;28;20048;-64
2023/10/14 18:04:30;;;;;;;94.20;29.73;;;;;;;;;;6232455;28;20044;-64
2023/10/14 18:07:32;;;;;;;116.78;39.17;;;;;;;;;;6251887;28;20049;-64
2023/10/14 18:10:33;;;;;;;37.88;15.65;;;;;;;;;;6251781;28;20052;-63
2023/10/14 18:13:35;;;;;;;73.22;27.77;;;;;;;;;;6251539;28;20041;-62
2023/10/14 18:16:36;;;;;;;19.73;8.32;;;;;;;;;;6247649;28;20033;-63
2023/10/14 18:19:38;;;;;;;52.08;19.33;;;;;;;;;;6252892;28;20063;-64
2023/10/14 18:22:39;;;;;;;22.10;8.53;;;;;;;;;;6235569;28;20060;-63
2023/10/14 18:25:42;;;;;;;18.02;6.85;;;;;;;;;;6245927;28;20430;-62